메인 페이지
METAR-TAF:

METAR-TAF

공항 :

Denton Municipal Airport

Denton, 텍사스, 미국

위도: 33-12-22N, 경도: 097-11-56W, 고도: 195m

현재 날씨관측

예보는 15분 전, 05:53시(UTC)에 발표되었습니다.
남남동6kt
온도 26°C
습도 74%
기압 1014 hPa
시정: 16.1km
맑음

METAR: KDTO 160553Z AUTO 16006KT 10SM CLR 26/21 A2993 RMK AO2 SLP123 T02610211 10344 20261 403560244 51004

시각: 01:08 (06:08 UTC)


TAF: 누락

4,000개 이상의 공항 관측 자료 및 예보 (METAR 및 TAF 보고).

지도상에서 검색 가능한 기상관측소가 노란 점과 빨간 점으로 표시되어 있습니다.

기상관측소 명을 보려면 표시 위로 마우스를 이동하세요.

날씨 관측과 예보를 보려면 클릭하세요.

지도 변경 : 확대하려면 엑스 표시가 있는 녹색 버튼, 축소하려면 빼기 표시가 있는 녹색 버튼, 다음 페이지의 지도를 보려면 녹색 화살표를 클릭하세요.


METAR-TAF: